FPO23T EDDP-LOWI
Flight info
| Callsign | FPO23T |
|---|---|
| Flight time | N/A |
| Altitude | 37000 |
| Route | GOLAT2N GOLAT T202 TABAT M736 AKOSI/N0410F310 M736 RDG/N0406F300 M736 DOSEL/N0411F310 M736 TULSI TULSI3A |
| Aircraft | B737/M-SDE2E3FGHIRWXY/LB1 |
Departure
| Time | 2026-05-04 19:31 |
|---|---|
| Airport | Leipzig/Halle Airport (EDDP) |
Arrival
| Time | N/A |
|---|---|
| Airport | Innsbruck Airport (LOWI) |
| Time | Latitude | Longitude | Altitude | Speed | Heading |
|---|---|---|---|---|---|
| 2026-05-04 18:27 | 51.40866 | 12.24490 | 464 ft | 0 kts | 266° |
| 2026-05-04 19:07 | 51.40866 | 12.24489 | 465 ft | 5 kts | 266° |
| 2026-05-04 19:08 | 51.40866 | 12.24490 | 464 ft | 0 kts | 266° |
| 2026-05-04 19:21 | 51.40866 | 12.24491 | 464 ft | 2 kts | 266° |
| 2026-05-04 19:21 | 51.40867 | 12.24517 | 464 ft | 2 kts | 272° |
| 2026-05-04 19:21 | 51.40865 | 12.24543 | 463 ft | 2 kts | 279° |
| 2026-05-04 19:22 | 51.40862 | 12.24569 | 462 ft | 2 kts | 290° |
| 2026-05-04 19:22 | 51.40855 | 12.24593 | 461 ft | 2 kts | 305° |
| 2026-05-04 19:22 | 51.40844 | 12.24612 | 458 ft | 2 kts | 323° |
| 2026-05-04 19:22 | 51.40830 | 12.24626 | 460 ft | 2 kts | 340° |
| 2026-05-04 19:23 | 51.40814 | 12.24632 | 461 ft | 2 kts | 352° |
| 2026-05-04 19:23 | 51.40809 | 12.24633 | 461 ft | 0 kts | 353° |
| 2026-05-04 19:25 | 51.40811 | 12.24633 | 463 ft | 1 kts | 353° |
| 2026-05-04 19:25 | 51.40827 | 12.24630 | 463 ft | 4 kts | 353° |
| 2026-05-04 19:25 | 51.40867 | 12.24624 | 464 ft | 7 kts | 356° |
| 2026-05-04 19:26 | 51.40928 | 12.24618 | 465 ft | 10 kts | 356° |
| 2026-05-04 19:26 | 51.40995 | 12.24611 | 466 ft | 9 kts | 356° |
| 2026-05-04 19:26 | 51.41060 | 12.24604 | 467 ft | 9 kts | 356° |
| 2026-05-04 19:26 | 51.41099 | 12.24679 | 468 ft | 13 kts | 86° |
| 2026-05-04 19:27 | 51.41106 | 12.24860 | 471 ft | 17 kts | 85° |
| 2026-05-04 19:27 | 51.41117 | 12.25049 | 474 ft | 17 kts | 86° |
| 2026-05-04 19:27 | 51.41125 | 12.25232 | 474 ft | 16 kts | 85° |
| 2026-05-04 19:27 | 51.41133 | 12.25407 | 473 ft | 15 kts | 84° |
| 2026-05-04 19:28 | 51.41228 | 12.25447 | 475 ft | 18 kts | 349° |
| 2026-05-04 19:28 | 51.41282 | 12.25419 | 468 ft | 1 kts | 333° |
| 2026-05-04 19:29 | 51.41282 | 12.25418 | 468 ft | 1 kts | 333° |
| 2026-05-04 19:29 | 51.41313 | 12.25387 | 470 ft | 11 kts | 320° |
| 2026-05-04 19:30 | 51.41370 | 12.25246 | 470 ft | 18 kts | 287° |
| 2026-05-04 19:30 | 51.41376 | 12.25044 | 467 ft | 18 kts | 266° |
| 2026-05-04 19:30 | 51.41362 | 12.24741 | 470 ft | 53 kts | 265° |
| 2026-05-04 19:30 | 51.41315 | 12.23759 | 467 ft | 121 kts | 265° |
| 2026-05-04 19:31 | 51.41237 | 12.22115 | 530 ft | 166 kts | 264° |
| 2026-05-04 19:31 | 51.41142 | 12.20272 | 1217 ft | 161 kts | 267° |
| 2026-05-04 19:31 | 51.41063 | 12.18520 | 1968 ft | 158 kts | 267° |
| 2026-05-04 19:31 | 51.40982 | 12.16663 | 2468 ft | 179 kts | 267° |
| 2026-05-04 19:32 | 51.40884 | 12.14474 | 2799 ft | 213 kts | 266° |
| 2026-05-04 19:32 | 51.40764 | 12.11935 | 3065 ft | 244 kts | 266° |
| 2026-05-04 19:32 | 51.40623 | 12.09086 | 3649 ft | 261 kts | 266° |
| 2026-05-04 19:32 | 51.40475 | 12.06185 | 4697 ft | 261 kts | 265° |
| 2026-05-04 19:33 | 51.40325 | 12.03305 | 5651 ft | 265 kts | 264° |
| 2026-05-04 19:33 | 51.40170 | 12.00368 | 6613 ft | 266 kts | 263° |
| 2026-05-04 19:33 | 51.40010 | 11.97370 | 6942 ft | 267 kts | 263° |
| 2026-05-04 19:33 | 51.39586 | 11.94490 | 7000 ft | 267 kts | 242° |
| 2026-05-04 19:34 | 51.38522 | 11.92130 | 7056 ft | 267 kts | 221° |
| 2026-05-04 19:34 | 51.36970 | 11.90485 | 7789 ft | 268 kts | 211° |
| 2026-05-04 19:34 | 51.35362 | 11.89008 | 8968 ft | 265 kts | 210° |
| 2026-05-04 19:34 | 51.33755 | 11.87540 | 10062 ft | 267 kts | 210° |
| 2026-05-04 19:35 | 51.32083 | 11.86006 | 10647 ft | 288 kts | 210° |
| 2026-05-04 19:35 | 51.30271 | 11.84337 | 11077 ft | 310 kts | 210° |
| 2026-05-04 19:35 | 51.28373 | 11.82587 | 11893 ft | 318 kts | 210° |
| 2026-05-04 19:35 | 51.26372 | 11.80986 | 12795 ft | 325 kts | 197° |
| 2026-05-04 19:36 | 51.24122 | 11.80524 | 13715 ft | 332 kts | 177° |
| 2026-05-04 19:36 | 51.21834 | 11.81185 | 14589 ft | 337 kts | 168° |
| 2026-05-04 19:36 | 51.19546 | 11.82120 | 15496 ft | 341 kts | 167° |
| 2026-05-04 19:36 | 51.17239 | 11.83112 | 16409 ft | 345 kts | 168° |
| 2026-05-04 19:37 | 51.14859 | 11.83846 | 17244 ft | 350 kts | 175° |